createdAt,value
2017-05-02T00:00:18.679Z,10.46
2017-05-02T00:01:19.448Z,10.53
2017-05-02T00:02:20.218Z,10.49
2017-05-02T00:03:20.989Z,10.54
2017-05-02T00:04:22.013Z,10.49
2017-05-02T00:05:22.785Z,10.61
2017-05-02T00:06:23.554Z,10.53
2017-05-02T00:07:24.326Z,10.46
2017-05-02T00:08:25.096Z,10.41
2017-05-02T00:09:26.120Z,10.44
2017-05-02T00:10:26.892Z,10.42
2017-05-02T00:11:27.662Z,10.49
2017-05-02T00:12:28.433Z,10.49
2017-05-02T00:13:29.205Z,10.44
2017-05-02T00:14:30.223Z,10.42
2017-05-02T00:15:30.997Z,10.44
2017-05-02T00:16:31.961Z,10.38
2017-05-02T00:17:32.725Z,10.44
2017-05-02T00:18:33.498Z,10.44
2017-05-02T00:19:34.518Z,10.40
2017-05-02T00:20:35.290Z,10.33
2017-05-02T00:21:36.062Z,10.23
2017-05-02T00:22:36.834Z,10.26
2017-05-02T00:23:37.608Z,10.23
2017-05-02T00:24:38.627Z,10.15
2017-05-02T00:25:39.398Z,10.16
2017-05-02T00:26:40.168Z,10.02
2017-05-02T00:27:40.936Z,10.04
2017-05-02T00:28:41.706Z,10.05
2017-05-02T00:29:42.727Z,9.99
2017-05-02T00:30:43.497Z,9.87
2017-05-02T00:31:44.269Z,9.95
2017-05-02T00:32:45.035Z,9.98
2017-05-02T00:33:45.806Z,9.91
2017-05-02T00:34:46.827Z,9.99
2017-05-02T00:35:47.597Z,9.89
2017-05-02T00:36:48.368Z,9.82
2017-05-02T00:37:49.141Z,9.80
2017-05-02T00:38:49.909Z,9.84
2017-05-02T00:39:50.930Z,9.82
2017-05-02T00:40:51.695Z,9.87
2017-05-02T00:41:52.465Z,9.91
2017-05-02T00:42:53.232Z,9.89
2017-05-02T00:43:53.997Z,9.94
2017-05-02T00:44:55.017Z,9.89
2017-05-02T00:45:55.786Z,9.94
2017-05-02T00:46:56.554Z,9.80
2017-05-02T00:47:57.322Z,9.84
2017-05-02T00:48:58.091Z,9.82
2017-05-02T00:49:59.110Z,9.82
2017-05-02T00:50:59.880Z,9.84
2017-05-02T00:52:00.645Z,9.84
2017-05-02T00:53:01.423Z,9.82
2017-05-02T00:54:02.178Z,9.84
2017-05-02T00:55:03.197Z,9.84
2017-05-02T00:56:03.964Z,9.79
2017-05-02T00:57:04.733Z,9.77
2017-05-02T00:58:05.499Z,9.84
2017-05-02T00:59:06.269Z,9.76
2017-05-02T01:00:07.284Z,9.79
2017-05-02T01:01:08.052Z,9.89
2017-05-02T01:02:08.821Z,9.89
2017-05-02T01:03:09.586Z,9.80
2017-05-02T01:04:10.352Z,9.83
2017-05-02T01:05:11.372Z,9.83
2017-05-02T01:06:12.140Z,9.84
2017-05-02T01:07:12.906Z,9.82
2017-05-02T01:08:13.675Z,9.77
2017-05-02T01:09:14.441Z,9.72
2017-05-02T01:10:15.425Z,9.86
2017-05-02T01:11:16.190Z,9.82
2017-05-02T01:12:16.959Z,9.77
2017-05-02T01:13:17.725Z,9.86
2017-05-02T01:14:18.493Z,9.84
2017-05-02T01:15:19.508Z,9.77
2017-05-02T01:16:20.274Z,9.89
2017-05-02T01:17:21.040Z,9.83
2017-05-02T01:18:21.808Z,9.84
2017-05-02T01:19:22.575Z,9.79
2017-05-02T01:20:23.592Z,9.80
2017-05-02T01:21:24.360Z,9.79
2017-05-02T01:22:25.127Z,9.91
2017-05-02T01:23:25.902Z,9.86
2017-05-02T01:24:26.662Z,9.84
2017-05-02T01:25:27.679Z,9.89
2017-05-02T01:26:28.446Z,9.86
2017-05-02T01:27:29.214Z,9.91
2017-05-02T01:28:30.167Z,9.84
2017-05-02T01:29:30.935Z,9.82
2017-05-02T01:30:31.953Z,9.86
2017-05-02T01:31:32.719Z,9.79
2017-05-02T01:32:33.484Z,9.82
2017-05-02T01:33:34.253Z,9.89
2017-05-02T01:34:35.019Z,9.82
2017-05-02T01:35:36.038Z,9.83
2017-05-02T01:36:36.804Z,9.82
2017-05-02T01:37:37.572Z,9.86
2017-05-02T01:38:38.341Z,9.89
2017-05-02T01:39:39.108Z,9.83
2017-05-02T01:40:40.128Z,9.83
2017-05-02T01:41:40.896Z,9.87
2017-05-02T01:42:41.663Z,9.84
2017-05-02T01:43:42.432Z,9.86
2017-05-02T01:44:43.202Z,9.89
2017-05-02T01:45:44.220Z,9.87
2017-05-02T01:46:44.989Z,9.86
2017-05-02T01:47:45.757Z,9.80
2017-05-02T01:48:46.525Z,9.89
2017-05-02T01:49:47.292Z,9.89
2017-05-02T01:50:48.309Z,9.86
2017-05-02T01:51:49.075Z,9.92
2017-05-02T01:52:49.846Z,9.84
2017-05-02T01:53:50.612Z,9.91
2017-05-02T01:54:51.381Z,9.84
2017-05-02T01:55:52.401Z,9.89
2017-05-02T01:56:53.171Z,9.87
2017-05-02T01:57:53.939Z,9.84
2017-05-02T01:58:54.706Z,9.89
2017-05-02T01:59:55.475Z,9.84
2017-05-02T02:00:56.494Z,9.89
2017-05-02T02:01:57.256Z,9.82
2017-05-02T02:02:58.027Z,9.87
2017-05-02T02:03:58.794Z,9.86
2017-05-02T02:04:59.560Z,9.89
2017-05-02T02:06:00.576Z,9.89
2017-05-02T02:07:01.345Z,9.89
2017-05-02T02:08:02.116Z,9.84
2017-05-02T02:09:02.886Z,10.01
2017-05-02T02:10:03.653Z,9.91
2017-05-02T02:11:04.673Z,9.86
2017-05-02T02:12:05.446Z,9.97
2017-05-02T02:13:06.209Z,9.97
2017-05-02T02:14:06.977Z,9.98
2017-05-02T02:15:07.745Z,9.87
2017-05-02T02:16:08.763Z,9.98
2017-05-02T02:17:09.533Z,9.95
2017-05-02T02:18:10.300Z,9.98
2017-05-02T02:19:11.071Z,9.99
2017-05-02T02:20:11.837Z,9.95
2017-05-02T02:21:12.857Z,9.99
2017-05-02T02:22:13.813Z,9.99
2017-05-02T02:23:14.582Z,9.98
2017-05-02T02:24:15.352Z,10.01
2017-05-02T02:25:16.121Z,9.99
2017-05-02T02:26:17.139Z,10.02
2017-05-02T02:27:17.910Z,9.99
2017-05-02T02:28:18.677Z,9.98
2017-05-02T02:29:19.443Z,9.99
2017-05-02T02:30:20.211Z,10.07
2017-05-02T02:31:21.229Z,9.98
2017-05-02T02:32:21.995Z,10.05
2017-05-02T02:33:22.763Z,10.02
2017-05-02T02:34:23.534Z,10.04
2017-05-02T02:35:24.301Z,10.04
2017-05-02T02:36:25.319Z,9.99
2017-05-02T02:37:26.087Z,10.01
2017-05-02T02:38:26.859Z,10.02
2017-05-02T02:39:27.628Z,10.07
2017-05-02T02:40:28.397Z,9.98
2017-05-02T02:41:29.414Z,10.04
2017-05-02T02:42:30.181Z,9.98
2017-05-02T02:43:30.951Z,10.01
2017-05-02T02:44:31.717Z,9.97
2017-05-02T02:45:32.488Z,10.01
2017-05-02T02:46:33.504Z,9.97
2017-05-02T02:47:34.276Z,10.01
2017-05-02T02:48:35.046Z,9.98
2017-05-02T02:49:35.813Z,10.01
2017-05-02T02:50:36.585Z,10.01
2017-05-02T02:51:37.602Z,9.89
2017-05-02T02:52:38.371Z,9.87
2017-05-02T02:53:39.135Z,9.99
2017-05-02T02:54:39.904Z,9.95
2017-05-02T02:55:40.671Z,9.97
2017-05-02T02:56:41.688Z,9.87
2017-05-02T02:57:42.457Z,9.97
2017-05-02T02:58:43.225Z,9.86
2017-05-02T02:59:43.992Z,9.92
2017-05-02T03:00:44.760Z,9.92
2017-05-02T03:01:45.779Z,9.91
2017-05-02T03:02:46.550Z,9.95
2017-05-02T03:03:47.315Z,9.91
2017-05-02T03:04:48.085Z,9.95
2017-05-02T03:05:48.855Z,10.02
2017-05-02T03:06:49.872Z,9.95
2017-05-02T03:07:50.642Z,10.01
2017-05-02T03:08:51.413Z,10.05
2017-05-02T03:09:52.180Z,10.09
2017-05-02T03:10:52.955Z,10.05
2017-05-02T03:11:54.160Z,9.97
2017-05-02T03:12:54.930Z,10.01
2017-05-02T03:13:55.699Z,10.05
2017-05-02T03:14:56.465Z,10.01
2017-05-02T03:15:57.231Z,9.99
2017-05-02T03:16:58.249Z,9.99
2017-05-02T03:17:59.021Z,10.04
2017-05-02T03:18:59.786Z,10.02
2017-05-02T03:20:00.553Z,9.97
2017-05-02T03:21:01.321Z,9.97
2017-05-02T03:22:02.338Z,9.99
2017-05-02T03:23:03.107Z,9.95
2017-05-02T03:24:03.877Z,9.99
2017-05-02T03:25:04.646Z,9.98
2017-05-02T03:26:05.417Z,9.99
2017-05-02T03:27:06.438Z,9.98
2017-05-02T03:28:07.209Z,10.02
2017-05-02T03:29:07.974Z,10.05
2017-05-02T03:30:08.744Z,10.01
2017-05-02T03:31:09.513Z,9.97
2017-05-02T03:32:10.532Z,10.02
2017-05-02T03:33:11.301Z,10.04
2017-05-02T03:34:12.066Z,9.99
2017-05-02T03:35:12.837Z,9.97
2017-05-02T03:36:13.605Z,9.99
2017-05-02T03:37:14.624Z,9.99
2017-05-02T03:38:15.392Z,9.97
2017-05-02T03:39:16.160Z,10.05
2017-05-02T03:40:16.930Z,10.02
2017-05-02T03:41:17.695Z,9.98
2017-05-02T03:42:18.715Z,10.01
2017-05-02T03:43:19.491Z,10.02
2017-05-02T03:44:20.260Z,10.02
2017-05-02T03:45:21.030Z,9.98
2017-05-02T03:46:21.803Z,9.98
2017-05-02T03:47:22.825Z,10.02
2017-05-02T03:48:23.597Z,9.99
2017-05-02T03:49:24.367Z,10.02
2017-05-02T03:50:25.139Z,9.99
2017-05-02T03:51:25.910Z,9.98
2017-05-02T03:52:26.932Z,10.01
2017-05-02T03:53:27.700Z,10.01
2017-05-02T03:54:28.470Z,10.01
2017-05-02T03:55:29.241Z,10.07
2017-05-02T03:56:30.010Z,9.99
2017-05-02T03:57:31.031Z,10.05
2017-05-02T03:58:31.802Z,10.07
2017-05-02T03:59:32.571Z,10.05
2017-05-02T04:00:33.347Z,10.12
2017-05-02T04:01:34.113Z,10.09
2017-05-02T04:02:35.132Z,9.99
2017-05-02T04:03:35.902Z,9.99
2017-05-02T04:04:36.672Z,10.02
2017-05-02T04:05:37.448Z,10.07
2017-05-02T04:06:38.212Z,9.99
2017-05-02T04:07:39.233Z,10.02
2017-05-02T04:08:40.006Z,10.01
2017-05-02T04:09:40.781Z,10.02
2017-05-02T04:10:41.551Z,9.95
2017-05-02T04:11:42.322Z,9.99
2017-05-02T04:12:43.346Z,10.04
2017-05-02T04:13:44.117Z,10.02
2017-05-02T04:14:44.884Z,9.98
2017-05-02T04:15:45.654Z,10.02
2017-05-02T04:16:46.614Z,10.04
2017-05-02T04:17:47.632Z,9.99
2017-05-02T04:18:48.402Z,10.01
2017-05-02T04:19:49.173Z,9.99
2017-05-02T04:20:49.946Z,9.99
2017-05-02T04:21:50.714Z,10.05
2017-05-02T04:22:51.738Z,10.02
2017-05-02T04:23:52.510Z,9.99
2017-05-02T04:24:53.280Z,9.98
2017-05-02T04:25:54.051Z,10.05
2017-05-02T04:26:54.825Z,10.01
2017-05-02T04:27:55.843Z,10.02
2017-05-02T04:28:56.614Z,10.02
2017-05-02T04:29:57.578Z,10.04
2017-05-02T04:30:58.346Z,9.94
2017-05-02T04:31:59.119Z,9.99
2017-05-02T04:33:00.142Z,10.04
2017-05-02T04:34:00.912Z,9.94
2017-05-02T04:35:01.685Z,9.99
2017-05-02T04:36:02.462Z,10.01
2017-05-02T04:37:03.234Z,9.98
2017-05-02T04:38:04.249Z,9.95
2017-05-02T04:39:05.023Z,10.04
2017-05-02T04:40:05.795Z,9.98
2017-05-02T04:41:06.570Z,10.04
2017-05-02T04:42:07.341Z,10.04
2017-05-02T04:43:08.363Z,9.97
2017-05-02T04:44:09.136Z,10.02
2017-05-02T04:45:09.910Z,10.02
2017-05-02T04:46:10.680Z,9.98
2017-05-02T04:47:11.451Z,9.98
2017-05-02T04:48:12.473Z,10.02
2017-05-02T04:49:13.248Z,10.12
2017-05-02T04:50:14.019Z,10.02
2017-05-02T04:51:14.792Z,10.05
2017-05-02T04:52:15.561Z,9.98
2017-05-02T04:53:16.586Z,10.07
2017-05-02T04:54:17.358Z,10.01
2017-05-02T04:55:18.127Z,9.99
2017-05-02T04:56:18.905Z,10.12
2017-05-02T04:57:19.671Z,10.05
2017-05-02T04:58:20.696Z,10.10
2017-05-02T04:59:21.467Z,10.12
2017-05-02T05:00:22.244Z,10.19
2017-05-02T05:01:23.017Z,10.15
2017-05-02T05:02:23.793Z,10.19
2017-05-02T05:03:24.815Z,10.23
2017-05-02T05:04:25.586Z,10.25
2017-05-02T05:05:26.361Z,10.23
2017-05-02T05:06:27.323Z,10.17
2017-05-02T05:07:28.095Z,10.12
2017-05-02T05:08:29.120Z,10.28
2017-05-02T05:09:29.897Z,10.17
2017-05-02T05:10:30.670Z,10.19
2017-05-02T05:11:31.443Z,10.17
2017-05-02T05:12:32.218Z,10.30
2017-05-02T05:13:33.244Z,10.35
2017-05-02T05:14:34.017Z,10.23
2017-05-02T05:15:34.789Z,10.34
2017-05-02T05:16:35.563Z,10.33
2017-05-02T05:17:36.336Z,10.34
2017-05-02T05:18:37.359Z,10.42
2017-05-02T05:19:38.136Z,10.49
2017-05-02T05:20:38.910Z,10.42
2017-05-02T05:21:39.682Z,10.44
2017-05-02T05:22:40.454Z,10.40
2017-05-02T05:23:41.478Z,10.33
2017-05-02T05:24:42.254Z,10.38
2017-05-02T05:25:43.028Z,10.40
2017-05-02T05:26:43.805Z,10.48
2017-05-02T05:27:44.577Z,10.48
2017-05-02T05:28:45.602Z,10.48
2017-05-02T05:29:46.376Z,10.44
2017-05-02T05:30:47.147Z,10.41
2017-05-02T05:31:47.926Z,10.42
2017-05-02T05:32:48.697Z,10.37
2017-05-02T05:33:49.728Z,10.41
2017-05-02T05:34:50.500Z,10.42
2017-05-02T05:35:51.273Z,10.48
2017-05-02T05:36:52.045Z,10.44
2017-05-02T05:37:52.819Z,10.40
2017-05-02T05:38:53.841Z,10.46
2017-05-02T05:39:54.615Z,10.49
2017-05-02T05:40:55.391Z,10.53
2017-05-02T05:41:56.166Z,10.57
2017-05-02T05:42:56.941Z,10.63
2017-05-02T05:43:57.968Z,10.59
2017-05-02T05:44:58.745Z,10.57
2017-05-02T05:45:59.521Z,10.54
2017-05-02T05:47:00.294Z,10.63
2017-05-02T05:48:01.066Z,10.68
2017-05-02T05:49:02.092Z,10.69
2017-05-02T05:50:02.865Z,10.67
2017-05-02T05:51:03.640Z,10.72
2017-05-02T05:52:04.414Z,10.68
2017-05-02T05:53:05.189Z,10.71
2017-05-02T05:54:06.215Z,10.69
2017-05-02T05:55:06.991Z,10.64
2017-05-02T05:56:07.763Z,10.79
2017-05-02T05:57:08.537Z,10.75
2017-05-02T05:58:09.312Z,10.75
2017-05-02T05:59:10.337Z,10.71
2017-05-02T06:00:11.110Z,10.75
2017-05-02T06:01:11.884Z,10.72
2017-05-02T06:02:12.660Z,10.79
2017-05-02T06:03:13.436Z,10.74
2017-05-02T06:04:14.462Z,10.76
2017-05-02T06:05:15.236Z,10.75
2017-05-02T06:06:16.014Z,10.68
2017-05-02T06:07:16.785Z,10.72
2017-05-02T06:08:17.558Z,10.71
2017-05-02T06:09:18.582Z,10.72
2017-05-02T06:10:19.357Z,10.76
2017-05-02T06:11:20.129Z,10.78
2017-05-02T06:12:20.905Z,10.76
2017-05-02T06:13:21.680Z,10.82
2017-05-02T06:14:22.709Z,10.84
2017-05-02T06:15:23.482Z,10.82
2017-05-02T06:16:24.258Z,10.81
2017-05-02T06:17:25.033Z,10.82
2017-05-02T06:18:25.807Z,10.78
2017-05-02T06:19:26.830Z,10.89
2017-05-02T06:20:27.605Z,10.75
2017-05-02T06:21:28.376Z,10.87
2017-05-02T06:22:29.150Z,10.84
2017-05-02T06:23:29.960Z,10.79
2017-05-02T06:24:30.949Z,10.78
2017-05-02T06:25:31.723Z,10.74
2017-05-02T06:26:32.496Z,10.86
2017-05-02T06:27:33.268Z,10.79
2017-05-02T06:28:34.046Z,10.84
2017-05-02T06:29:35.072Z,10.93
2017-05-02T06:30:35.846Z,10.89
2017-05-02T06:31:36.626Z,10.90
2017-05-02T06:32:37.397Z,10.82
2017-05-02T06:33:38.172Z,10.87
2017-05-02T06:34:39.201Z,10.90
2017-05-02T06:35:39.977Z,10.89
2017-05-02T06:36:40.751Z,10.87
2017-05-02T06:37:41.525Z,10.92
2017-05-02T06:38:42.301Z,10.92
2017-05-02T06:39:43.328Z,10.87
2017-05-02T06:40:44.105Z,10.84
2017-05-02T06:41:44.881Z,10.92
2017-05-02T06:42:45.657Z,10.96
2017-05-02T06:43:46.620Z,10.93
2017-05-02T06:44:47.644Z,10.97
2017-05-02T06:45:48.420Z,10.92
2017-05-02T06:46:49.197Z,10.93
2017-05-02T06:47:49.970Z,10.90
2017-05-02T06:48:50.744Z,10.96
2017-05-02T06:49:51.771Z,10.93
2017-05-02T06:50:52.545Z,10.89
2017-05-02T06:51:53.351Z,10.87
2017-05-02T06:52:54.096Z,10.93
2017-05-02T06:53:54.872Z,10.87
2017-05-02T06:54:55.899Z,10.93
2017-05-02T06:55:56.676Z,10.94
2017-05-02T06:56:57.448Z,10.97
2017-05-02T06:57:58.225Z,10.93
2017-05-02T06:58:59.001Z,11.02
2017-05-02T07:00:00.027Z,11.00
2017-05-02T07:01:00.803Z,10.90
2017-05-02T07:02:01.578Z,10.94
2017-05-02T07:03:02.355Z,11.02
2017-05-02T07:04:03.132Z,11.05
2017-05-02T07:05:04.157Z,11.00
2017-05-02T07:06:04.933Z,11.04
2017-05-02T07:07:05.709Z,11.10
2017-05-02T07:08:06.490Z,11.18
2017-05-02T07:09:07.261Z,11.10
2017-05-02T07:10:08.286Z,11.12
2017-05-02T07:11:09.064Z,11.15
2017-05-02T07:12:09.835Z,11.04
2017-05-02T07:13:10.614Z,11.05
2017-05-02T07:14:11.389Z,11.07
2017-05-02T07:15:12.417Z,11.12
2017-05-02T07:16:13.191Z,11.19
2017-05-02T07:17:13.967Z,11.19
2017-05-02T07:18:14.743Z,11.23
2017-05-02T07:19:15.519Z,11.36
2017-05-02T07:20:16.546Z,11.33
2017-05-02T07:21:17.322Z,11.36
2017-05-02T07:22:18.098Z,11.41
2017-05-02T07:23:18.882Z,11.41
2017-05-02T07:24:19.658Z,11.36
2017-05-02T07:25:20.687Z,11.37
2017-05-02T07:26:21.461Z,11.45
2017-05-02T07:27:22.236Z,11.52
2017-05-02T07:28:23.015Z,11.57
2017-05-02T07:29:23.793Z,11.57
2017-05-02T07:30:24.820Z,11.70
2017-05-02T07:31:25.596Z,11.70
2017-05-02T07:32:26.377Z,11.86
2017-05-02T07:33:27.153Z,11.88
2017-05-02T07:34:27.929Z,11.94
2017-05-02T07:35:28.954Z,11.95
2017-05-02T07:36:29.730Z,11.95
2017-05-02T07:37:30.505Z,12.04
2017-05-02T07:38:31.283Z,12.09
2017-05-02T07:39:32.056Z,12.20
2017-05-02T07:40:33.082Z,12.18
2017-05-02T07:41:33.858Z,12.17
2017-05-02T07:42:34.636Z,12.29
2017-05-02T07:43:35.414Z,12.32
2017-05-02T07:44:36.191Z,12.39
2017-05-02T07:45:37.219Z,12.46
2017-05-02T07:46:38.019Z,12.47
2017-05-02T07:47:38.798Z,12.53
2017-05-02T07:48:39.577Z,12.47
2017-05-02T07:49:40.357Z,12.55
2017-05-02T07:50:41.391Z,12.73
2017-05-02T07:51:42.166Z,12.62
2017-05-02T07:52:42.941Z,12.65
2017-05-02T07:53:43.717Z,12.73
2017-05-02T07:54:44.494Z,12.68
2017-05-02T07:55:45.523Z,12.75
2017-05-02T07:56:46.302Z,12.72
2017-05-02T07:57:47.082Z,12.76
2017-05-02T07:58:47.859Z,12.79
2017-05-02T07:59:48.641Z,12.79
2017-05-02T08:00:49.670Z,12.83
2017-05-02T08:01:50.445Z,12.95
2017-05-02T08:02:51.228Z,13.05
2017-05-02T08:03:52.004Z,13.01
2017-05-02T08:04:52.783Z,13.16
2017-05-02T08:05:53.814Z,12.94
2017-05-02T08:06:54.589Z,13.08
2017-05-02T08:07:55.371Z,13.12
2017-05-02T08:08:56.151Z,13.13
2017-05-02T08:09:56.927Z,13.12
2017-05-02T08:10:57.954Z,13.12
2017-05-02T08:11:58.733Z,13.12
2017-05-02T08:12:59.510Z,13.13
2017-05-02T08:14:00.296Z,13.15
2017-05-02T08:15:01.073Z,13.12
2017-05-02T08:16:02.104Z,13.09
2017-05-02T08:17:02.880Z,13.11
2017-05-02T08:18:03.657Z,13.22
2017-05-02T08:19:04.436Z,13.25
2017-05-02T08:20:05.214Z,13.33
2017-05-02T08:21:06.237Z,13.11
2017-05-02T08:22:07.016Z,13.20
2017-05-02T08:23:07.798Z,13.13
2017-05-02T08:24:08.576Z,13.19
2017-05-02T08:25:09.353Z,13.11
2017-05-02T08:26:10.383Z,13.18
2017-05-02T08:27:11.160Z,13.12
2017-05-02T08:28:11.950Z,12.98
2017-05-02T08:29:12.732Z,13.03
2017-05-02T08:30:13.511Z,12.95
2017-05-02T08:31:14.540Z,13.00
2017-05-02T08:32:15.319Z,13.03
2017-05-02T08:33:16.100Z,12.91
2017-05-02T08:34:16.873Z,12.82
2017-05-02T08:35:17.653Z,12.80
2017-05-02T08:36:18.682Z,12.85
2017-05-02T08:37:19.458Z,12.78
2017-05-02T08:38:20.234Z,12.73
2017-05-02T08:39:21.016Z,12.67
2017-05-02T08:40:21.793Z,12.76
2017-05-02T08:41:22.823Z,12.83
2017-05-02T08:42:23.602Z,12.86
2017-05-02T08:43:24.380Z,12.80
2017-05-02T08:44:25.156Z,12.82
2017-05-02T08:45:25.934Z,12.78
2017-05-02T08:46:26.964Z,12.86
2017-05-02T08:47:27.743Z,12.90
2017-05-02T08:48:28.520Z,12.76
2017-05-02T08:49:29.296Z,12.82
2017-05-02T08:50:30.076Z,12.87
2017-05-02T08:51:31.102Z,12.98
2017-05-02T08:52:31.879Z,12.93
2017-05-02T08:53:32.661Z,12.94
2017-05-02T08:54:33.439Z,12.85
2017-05-02T08:55:34.217Z,12.82
2017-05-02T08:56:35.242Z,13.00
2017-05-02T08:57:36.019Z,12.86
2017-05-02T08:58:36.801Z,13.00
2017-05-02T08:59:37.765Z,12.87
2017-05-02T09:00:38.542Z,13.04
2017-05-02T09:01:39.571Z,12.98
2017-05-02T09:02:40.352Z,13.12
2017-05-02T09:03:41.130Z,13.03
2017-05-02T09:04:41.908Z,13.18
2017-05-02T09:05:42.684Z,13.23
2017-05-02T09:06:43.714Z,13.42
2017-05-02T09:07:44.493Z,13.47
2017-05-02T09:08:45.274Z,13.70
2017-05-02T09:09:46.058Z,13.77
2017-05-02T09:10:46.840Z,13.70
2017-05-02T09:11:47.869Z,13.63
2017-05-02T09:12:48.647Z,13.77
2017-05-02T09:13:49.427Z,13.77
2017-05-02T09:14:50.205Z,13.79
2017-05-02T09:15:50.985Z,13.92
2017-05-02T09:16:52.016Z,13.85
2017-05-02T09:17:52.798Z,13.83
2017-05-02T09:18:53.576Z,13.85
2017-05-02T09:19:54.353Z,13.87
2017-05-02T09:20:55.130Z,13.90
2017-05-02T09:21:56.158Z,13.74
2017-05-02T09:22:56.939Z,13.78
2017-05-02T09:23:57.717Z,13.83
2017-05-02T09:24:58.495Z,13.86
2017-05-02T09:25:59.273Z,13.77
2017-05-02T09:27:00.300Z,13.78
2017-05-02T09:28:01.081Z,13.85
2017-05-02T09:29:01.857Z,13.85
2017-05-02T09:30:02.636Z,13.70
2017-05-02T09:31:03.414Z,13.75
2017-05-02T09:32:04.441Z,13.65
2017-05-02T09:33:05.218Z,13.53
2017-05-02T09:34:06.181Z,13.50
2017-05-02T09:35:06.971Z,13.46
2017-05-02T09:36:07.743Z,13.60
2017-05-02T09:37:08.772Z,13.68
2017-05-02T09:38:09.553Z,13.70
2017-05-02T09:39:10.335Z,13.86
2017-05-02T09:40:11.115Z,13.90
2017-05-02T09:41:11.896Z,13.85
2017-05-02T09:42:12.928Z,13.83
2017-05-02T09:43:13.706Z,13.72
2017-05-02T09:44:14.488Z,13.78
2017-05-02T09:45:15.268Z,13.92
2017-05-02T09:46:16.050Z,14.03
2017-05-02T09:47:17.081Z,14.00
2017-05-02T09:48:17.862Z,14.12
2017-05-02T09:49:18.644Z,14.15
2017-05-02T09:50:19.425Z,14.20
2017-05-02T09:51:20.208Z,14.20
2017-05-02T09:52:21.237Z,14.23
2017-05-02T09:53:22.019Z,14.30
2017-05-02T09:54:22.800Z,14.11
2017-05-02T09:55:23.577Z,14.12
2017-05-02T09:56:24.356Z,14.18
2017-05-02T09:57:25.389Z,14.20
2017-05-02T09:58:26.168Z,14.20
2017-05-02T09:59:26.949Z,14.08
2017-05-02T10:00:27.730Z,14.08
2017-05-02T10:01:28.513Z,14.25
2017-05-02T10:02:29.546Z,14.32
2017-05-02T10:03:30.327Z,14.28
2017-05-02T10:04:31.110Z,14.29
2017-05-02T10:05:31.889Z,14.36
2017-05-02T10:06:32.675Z,14.47
2017-05-02T10:07:33.706Z,14.32
2017-05-02T10:08:34.489Z,14.37
2017-05-02T10:09:35.269Z,14.43
2017-05-02T10:10:36.048Z,14.41
2017-05-02T10:11:36.826Z,14.50
2017-05-02T10:12:37.605Z,14.55
2017-05-02T10:13:38.386Z,14.68
2017-05-02T10:14:39.168Z,14.53
2017-05-02T10:15:39.950Z,14.29
2017-05-02T10:16:40.729Z,14.43
2017-05-02T10:17:41.506Z,14.26
2017-05-02T10:18:42.288Z,14.33
2017-05-02T10:19:43.068Z,14.41
2017-05-02T10:20:43.854Z,14.29
2017-05-02T10:21:44.626Z,14.44
2017-05-02T10:22:45.406Z,14.41
2017-05-02T10:23:46.188Z,14.28
2017-05-02T10:24:46.968Z,14.18
2017-05-02T10:25:47.746Z,14.12
2017-05-02T10:26:48.525Z,14.23
2017-05-02T10:27:49.301Z,14.14
2017-05-02T10:28:50.081Z,14.15
2017-05-02T10:29:50.859Z,14.10
2017-05-02T10:30:51.637Z,13.99
2017-05-02T10:31:52.419Z,14.08
2017-05-02T10:32:53.200Z,14.29
2017-05-02T10:33:53.982Z,14.30
2017-05-02T10:34:54.762Z,14.40
2017-05-02T10:35:55.542Z,14.41
2017-05-02T10:36:56.323Z,14.58
2017-05-02T10:37:57.106Z,14.54
2017-05-02T10:38:57.884Z,14.51
2017-05-02T10:39:58.663Z,14.54
2017-05-02T10:40:59.448Z,14.43
2017-05-02T10:42:00.223Z,14.18
2017-05-02T10:43:01.005Z,14.40
2017-05-02T10:44:01.788Z,14.47
2017-05-02T10:45:02.570Z,14.62
2017-05-02T10:46:03.350Z,14.50
2017-05-02T10:47:04.131Z,14.73
2017-05-02T10:48:04.911Z,14.68
2017-05-02T10:49:05.691Z,14.62
2017-05-02T10:50:06.471Z,14.65
2017-05-02T10:51:07.253Z,14.82
2017-05-02T10:52:08.033Z,14.81
2017-05-02T10:53:08.818Z,14.94
2017-05-02T10:54:09.602Z,15.24
2017-05-02T10:55:10.387Z,15.40
2017-05-02T10:56:11.172Z,15.47
2017-05-02T10:57:11.954Z,15.44
2017-05-02T10:58:12.739Z,15.61
2017-05-02T10:59:13.523Z,15.55
2017-05-02T11:00:14.305Z,15.62
2017-05-02T11:01:15.088Z,15.73
2017-05-02T11:02:15.874Z,15.82
2017-05-02T11:03:16.653Z,15.83
2017-05-02T11:04:17.437Z,15.80
2017-05-02T11:05:18.222Z,15.76
2017-05-02T11:06:19.002Z,15.64
2017-05-02T11:07:19.783Z,15.57
2017-05-02T11:08:20.566Z,15.44
2017-05-02T11:09:21.347Z,15.10
2017-05-02T11:10:22.130Z,15.10
2017-05-02T11:11:22.911Z,15.22
2017-05-02T11:12:23.694Z,15.19
2017-05-02T11:13:24.475Z,15.22
2017-05-02T11:14:25.256Z,15.33
2017-05-02T11:15:26.038Z,15.47
2017-05-02T11:16:26.818Z,15.18
2017-05-02T11:17:27.599Z,15.17
2017-05-02T11:18:28.381Z,15.10
2017-05-02T11:19:29.165Z,15.21
2017-05-02T11:20:29.938Z,15.07
2017-05-02T11:21:30.719Z,15.06
2017-05-02T11:22:31.499Z,15.03
2017-05-02T11:23:32.284Z,14.85
2017-05-02T11:24:33.065Z,15.07
2017-05-02T11:25:34.033Z,15.02
2017-05-02T11:26:34.810Z,15.04
2017-05-02T11:27:35.591Z,15.14
2017-05-02T11:28:36.373Z,15.24
2017-05-02T11:29:37.152Z,15.31
2017-05-02T11:30:37.936Z,15.57
2017-05-02T11:31:38.716Z,15.39
2017-05-02T11:32:39.499Z,15.58
2017-05-02T11:33:40.280Z,15.40
2017-05-02T11:34:41.063Z,15.42
2017-05-02T11:35:41.844Z,15.54
2017-05-02T11:36:42.628Z,15.55
2017-05-02T11:37:43.406Z,15.37
2017-05-02T11:38:44.187Z,15.43
2017-05-02T11:39:44.968Z,15.21
2017-05-02T11:40:45.748Z,15.19
2017-05-02T11:41:46.527Z,15.28
2017-05-02T11:42:47.316Z,15.27
2017-05-02T11:43:48.300Z,15.19
2017-05-02T11:44:49.083Z,15.27
2017-05-02T11:45:49.864Z,15.33
2017-05-02T11:46:50.645Z,15.42
2017-05-02T11:47:51.429Z,15.70
2017-05-02T11:48:52.212Z,15.86
2017-05-02T11:49:52.992Z,15.80
2017-05-02T11:50:53.777Z,15.94
2017-05-02T11:51:54.561Z,15.86
2017-05-02T11:52:55.344Z,15.88
2017-05-02T11:53:56.128Z,15.94
2017-05-02T11:54:56.910Z,15.97
2017-05-02T11:55:57.692Z,16.02
2017-05-02T11:56:58.477Z,15.84
2017-05-02T11:57:59.262Z,15.82
2017-05-02T11:59:00.044Z,16.31
2017-05-02T12:00:00.830Z,16.87
2017-05-02T12:01:01.621Z,17.64
2017-05-02T12:02:02.411Z,18.45
2017-05-02T12:03:03.199Z,18.96
2017-05-02T12:04:03.992Z,19.31
2017-05-02T12:05:04.783Z,19.37
2017-05-02T12:06:05.575Z,19.29
2017-05-02T12:07:06.367Z,19.24
2017-05-02T12:08:07.342Z,18.78
2017-05-02T12:09:08.383Z,18.58
2017-05-02T12:10:09.174Z,18.19
2017-05-02T12:11:09.962Z,18.04
2017-05-02T12:12:10.748Z,18.08
2017-05-02T12:13:11.539Z,17.67
2017-05-02T12:14:12.580Z,17.38
2017-05-02T12:15:13.367Z,17.20
2017-05-02T12:16:14.150Z,16.89
2017-05-02T12:17:14.933Z,16.69
2017-05-02T12:18:15.718Z,16.49
2017-05-02T12:19:16.761Z,16.28
2017-05-02T12:20:17.543Z,16.10
2017-05-02T12:21:18.324Z,15.97
2017-05-02T12:22:19.106Z,15.98
2017-05-02T12:23:19.887Z,15.75
2017-05-02T12:24:20.920Z,15.61
2017-05-02T12:25:21.703Z,15.52
2017-05-02T12:26:22.485Z,15.36
2017-05-02T12:27:23.268Z,15.49
2017-05-02T12:28:24.052Z,15.33
2017-05-02T12:29:25.081Z,15.09
2017-05-02T12:30:25.865Z,14.96
2017-05-02T12:31:26.644Z,14.86
2017-05-02T12:32:27.428Z,14.79
2017-05-02T12:33:28.209Z,14.85
2017-05-02T12:34:29.242Z,14.82
2017-05-02T12:35:30.023Z,14.82
2017-05-02T12:36:30.805Z,14.72
2017-05-02T12:37:31.583Z,14.65
2017-05-02T12:38:32.365Z,14.53
2017-05-02T12:39:33.392Z,14.59
2017-05-02T12:40:34.170Z,14.54
2017-05-02T12:41:34.949Z,14.44
2017-05-02T12:42:35.729Z,14.50
2017-05-02T12:43:36.508Z,14.47
2017-05-02T12:44:37.539Z,14.51
2017-05-02T12:45:38.319Z,14.43
2017-05-02T12:46:39.093Z,14.41
2017-05-02T12:47:39.874Z,14.23
2017-05-02T12:48:40.652Z,14.10
2017-05-02T12:49:41.683Z,13.96
2017-05-02T12:50:42.475Z,13.93
2017-05-02T12:51:43.254Z,13.83
2017-05-02T12:52:44.030Z,13.63
2017-05-02T12:53:44.815Z,13.62
2017-05-02T12:55:51.030Z,13.49
2017-05-02T12:56:49.311Z,13.28
2017-05-02T12:57:50.087Z,13.18
2017-05-02T12:58:50.865Z,13.25
2017-05-02T12:59:51.894Z,13.30
2017-05-02T13:00:52.673Z,13.23
2017-05-02T13:01:53.453Z,13.33
2017-05-02T13:02:54.231Z,13.39
2017-05-02T13:03:55.005Z,13.31
2017-05-02T13:04:56.033Z,13.18
2017-05-02T13:05:56.809Z,13.03
2017-05-02T13:06:57.588Z,13.00
2017-05-02T13:07:58.363Z,13.05
2017-05-02T13:08:59.143Z,12.91
2017-05-02T13:10:00.167Z,12.76